Aérodrome :
LOGIN :

S'inscrire | Disclaimer

   EN    FR    IT 

 










Légende :    VFR   VFR Marginal   IFR   IFR Intensif   IFR Très Intensif
Visi : 
Plafond : 
>= 8 km
>= 3000ft
5 à 8 km
1000 à 3000 ft
1500m à 5 km
500 à 1000 ft
800 à 1500m
200 à 500 ft
< 800m
< 200 ft
Symboles :   Orages  Brouillard  Fortes neiges  Fortes précipitations  Vent > 20 kt
SIGMETs :   Divers  Orages  Givrage  Turbulence  Onde Orograph.  Cendres Volcan.







- Altitude de l'aérodrome : 172 ft
- Code IATA : LPI


ESSL - Saab

DERNIER METAR :
  • 231120Z AUTO 28010KT 230V330 9999 BKN051/// OVC130/// 16/05 Q1012

METARs EXPIRÉS :
  • 231050Z AUTO 29009KT 240V340 9999 BKN130/// 16/05 Q1012
  • 231020Z AUTO 28010KT 240V320 9999 FEW094/// SCT130/// BKN220/// 15/05 Q1012
  • 230950Z AUTO 29012KT 9999 SCT098/// 14/04 Q1012
  • 230920Z AUTO 29008G18KT 220V350 9999 NCD 15/05 Q1011
  • 230850Z AUTO 30010KT 270V360 9999 FEW042/// 15/05 Q1011

Prévision TAF périmée.
Pas de NOTAMs connus pour ce terrain.



MET'MAP, la Météo Aéronautique d'un coup d'oeil ! - Copyright ORBIFLY Décembre 2007 - Disclaimer

ORBIFLY MET'MAP TEAM :

Programmation & Développement : Alexandra Zaïnal
Conception & Développement : Baudouin d'Aumeries
Co-Programmation & Développement : Marc-Olivier Méhu
Soutien technique & logistique : Manuel Goepfert

Contact : metmap@orbifly.com




SOURCES & CREDITS :

   NOAA